Time,TemperatureF,DewpointF,PressureIn,WindDirection,WindDirectionDegrees,WindSpeedMPH,WindSpeedGustMPH,Humidity,HourlyPrecipIn,Conditions,Clouds,dailyrainin,SoftwareType,DateUTC
2013-05-12 00:00:00,42.2,25.8,30.09,WNW,298,5.0,10.0,52,0.00,,,0.02,Wunderground v.1.15,2013-05-12 05:00:00,
2013-05-12 00:29:00,41.9,26.0,30.10,NW,324,5.0,5.0,53,0.00,,,0.00,Wunderground v.1.15,2013-05-12 05:29:00,
2013-05-12 00:59:00,41.6,24.3,30.11,NW,308,7.0,9.0,50,0.00,,,0.00,Wunderground v.1.15,2013-05-12 05:59:00,
2013-05-12 01:29:00,41.5,24.7,30.11,NNW,345,7.0,9.0,51,0.00,,,0.00,Wunderground v.1.15,2013-05-12 06:29:00,
2013-05-12 01:59:00,41.2,23.5,30.11,NNW,338,10.0,14.0,49,0.00,,,0.00,Wunderground v.1.15,2013-05-12 06:59:00,
2013-05-12 02:30:00,40.2,23.0,30.12,NNW,346,12.0,12.0,50,0.00,,,0.00,Wunderground v.1.15,2013-05-12 07:30:00,
2013-05-12 03:00:00,39.3,21.2,30.12,NW,317,11.0,11.0,48,0.00,,,0.00,Wunderground v.1.15,2013-05-12 08:00:00,
2013-05-12 03:30:00,38.6,21.1,30.12,NW,304,9.0,9.0,49,0.00,,,0.00,Wunderground v.1.15,2013-05-12 08:30:00,
2013-05-12 04:00:00,37.9,20.4,30.13,NW,315,6.0,6.0,49,0.00,,,0.00,Wunderground v.1.15,2013-05-12 09:00:00,
2013-05-12 04:29:00,37.2,20.7,30.13,WNW,297,7.0,10.0,51,0.00,,,0.00,Wunderground v.1.15,2013-05-12 09:29:00,
2013-05-12 04:59:00,36.5,21.0,30.13,NW,309,7.0,8.0,53,0.00,,,0.00,Wunderground v.1.15,2013-05-12 09:59:00,
2013-05-12 05:29:00,35.9,21.3,30.13,West,271,5.0,5.0,55,0.00,,,0.00,Wunderground v.1.15,2013-05-12 10:29:00,
2013-05-12 05:59:00,35.5,20.9,30.14,WNW,290,8.0,11.0,55,0.00,,,0.00,Wunderground v.1.15,2013-05-12 10:59:00,
2013-05-12 06:29:00,35.3,21.2,30.14,NW,307,10.0,10.0,56,0.00,,,0.00,Wunderground v.1.15,2013-05-12 11:29:00,
2013-05-12 06:59:00,36.0,21.8,30.15,WNW,284,9.0,9.0,56,0.00,,,0.00,Wunderground v.1.15,2013-05-12 11:59:00,
2013-05-12 07:29:00,36.9,21.8,30.16,West,269,9.0,13.0,54,0.00,,,0.00,Wunderground v.1.15,2013-05-12 12:29:00,
2013-05-12 07:59:00,37.8,22.2,30.16,NW,314,8.0,8.0,53,0.00,,,0.00,Wunderground v.1.15,2013-05-12 12:59:00,
2013-05-12 08:29:00,38.2,21.2,30.15,WNW,293,12.0,12.0,50,0.00,,,0.00,Wunderground v.1.15,2013-05-12 13:29:00,
2013-05-12 08:59:00,39.1,20.5,30.15,WNW,297,13.0,16.0,47,0.00,,,0.00,Wunderground v.1.15,2013-05-12 13:59:00,
2013-05-12 09:29:00,39.8,19.1,30.14,WNW,291,12.0,12.0,43,0.00,,,0.00,Wunderground v.1.15,2013-05-12 14:29:00,
2013-05-12 09:59:00,41.2,18.7,30.15,NW,318,10.0,12.0,40,0.00,,,0.00,Wunderground v.1.15,2013-05-12 14:59:00,
2013-05-12 10:29:00,42.2,14.4,30.14,NW,304,11.0,11.0,32,0.00,,,0.00,Wunderground v.1.15,2013-05-12 15:29:00,
2013-05-12 10:59:00,42.9,15.0,30.14,West,279,12.0,12.0,32,0.00,,,0.00,Wunderground v.1.15,2013-05-12 15:59:00,
2013-05-12 11:29:00,45.2,14.0,30.14,NW,315,10.0,10.0,28,0.00,,,0.00,Wunderground v.1.15,2013-05-12 16:29:00,
2013-05-12 12:00:00,45.5,13.4,30.14,WNW,289,16.0,21.0,27,0.00,,,0.00,Wunderground v.1.15,2013-05-12 17:00:00,
2013-05-12 12:30:00,47.1,11.1,30.13,West,272,12.0,12.0,23,0.00,,,0.00,Wunderground v.1.15,2013-05-12 17:30:00,
2013-05-12 12:59:00,47.3,10.3,30.12,NW,317,12.0,17.0,22,0.00,,,0.00,Wunderground v.1.15,2013-05-12 17:59:00,
2013-05-12 13:29:00,48.8,10.5,30.11,WNW,295,12.0,12.0,21,0.00,,,0.00,Wunderground v.1.15,2013-05-12 18:29:00,
2013-05-12 13:59:00,49.2,9.8,30.10,NW,309,13.0,16.0,20,0.00,,,0.00,Wunderground v.1.15,2013-05-12 18:59:00,
2013-05-12 14:29:00,50.4,9.6,30.10,NW,311,9.0,13.0,19,0.00,,,0.00,Wunderground v.1.15,2013-05-12 19:29:00,
2013-05-12 14:59:00,51.4,11.6,30.09,NW,319,11.0,11.0,20,0.00,,,0.00,Wunderground v.1.15,2013-05-12 19:59:00,
2013-05-12 15:29:00,51.3,11.5,30.08,NNW,341,14.0,14.0,20,0.00,,,0.00,Wunderground v.1.15,2013-05-12 20:29:00,
2013-05-12 15:59:00,52.9,14.0,30.08,NNW,335,12.0,12.0,21,0.00,,,0.00,Wunderground v.1.15,2013-05-12 20:59:00,
2013-05-12 16:29:00,52.9,14.0,30.07,West,261,10.0,10.0,21,0.00,,,0.00,Wunderground v.1.15,2013-05-12 21:29:00,
2013-05-12 16:59:00,52.9,11.7,30.07,WNW,288,14.0,14.0,19,0.00,,,0.00,Wunderground v.1.15,2013-05-12 21:59:00,
2013-05-12 17:29:00,53.8,12.4,30.07,NNW,339,9.0,9.0,19,0.00,,,0.00,Wunderground v.1.15,2013-05-12 22:29:00,
2013-05-12 18:00:00,53.8,12.4,30.07,WNW,282,11.0,15.0,19,0.00,,,0.00,Wunderground v.1.15,2013-05-12 23:00:00,
2013-05-12 18:29:00,54.2,13.9,30.07,WNW,286,9.0,13.0,20,0.00,,,0.00,Wunderground v.1.15,2013-05-12 23:29:00,
2013-05-12 18:59:00,54.1,15.0,30.06,NW,306,11.0,11.0,21,0.00,,,0.00,Wunderground v.1.15,2013-05-12 23:59:00,
2013-05-12 19:29:00,54.1,15.0,30.06,NW,311,7.0,7.0,21,0.00,,,0.00,Wunderground v.1.15,2013-05-13 00:29:00,
2013-05-12 20:00:00,53.6,15.6,30.06,NW,325,9.0,9.0,22,0.00,,,0.00,Wunderground v.1.15,2013-05-13 01:00:00,
2013-05-12 20:29:00,52.6,15.8,30.06,WNW,294,4.0,4.0,23,0.00,,,0.00,Wunderground v.1.15,2013-05-13 01:29:00,
2013-05-12 20:59:00,51.4,17.6,30.06,NW,312,2.0,3.0,26,0.00,,,0.00,Wunderground v.1.15,2013-05-13 01:59:00,
2013-05-12 21:30:00,50.5,18.6,30.07,West,279,5.0,5.0,28,0.00,,,0.00,Wunderground v.1.15,2013-05-13 02:30:00,
2013-05-12 21:59:00,49.2,19.8,30.08,WNW,293,4.0,4.0,31,0.00,,,0.00,Wunderground v.1.15,2013-05-13 02:59:00,
2013-05-12 22:30:00,48.2,21.1,30.08,WNW,296,2.0,2.0,34,0.00,,,0.00,Wunderground v.1.15,2013-05-13 03:30:00,
2013-05-12 23:00:00,47.0,22.0,30.08,WNW,296,0.0,0.0,37,0.00,,,0.00,Wunderground v.1.15,2013-05-13 04:00:00,
2013-05-12 23:29:00,45.4,23.6,30.08,WNW,296,0.0,0.0,42,0.00,,,0.00,Wunderground v.1.15,2013-05-13 04:29:00,